Time;durP1;ratioP1;P1;durP2;ratioP2;P2;SDS_P1;SDS_P2;PMS_P1;PMS_P2;Temp;Humidity;BMP_temperature;BMP_pressure;BME280_temperature;BME280_humidity;BME280_pressure;Samples;Min_cycle;Max_cycle;Signal;HPM_P1;HPM_P2
2022/03/30 00:00:19;;;;;;;0.25;0.20;;;;;;;24.28;50.44;100951.69;5033259;28;20034;-66
2022/03/30 00:02:44;;;;;;;0.20;0.10;;;;;;;24.28;50.80;100948.94;5033505;28;20107;-65
2022/03/30 00:05:09;;;;;;;0.85;0.22;;;;;;;24.28;50.78;100948.09;5033375;28;20040;-67
2022/03/30 00:07:35;;;;;;;0.10;0.03;;;;;;;24.28;51.82;100942.59;5033091;28;20354;-65
2022/03/30 00:10:03;;;;;;;0.17;0.10;;;;;;;24.29;50.86;100942.41;5033394;28;20428;-65
2022/03/30 00:12:28;;;;;;;0.35;0.13;;;;;;;24.26;51.06;100944.69;5033010;28;20377;-66
2022/03/30 00:14:54;;;;;;;0.52;0.20;;;;;;;24.25;50.48;100948.50;5034601;28;20461;-65
2022/03/30 00:17:19;;;;;;;0.03;0.03;;;;;;;24.27;50.93;100946.41;5052856;28;20025;-66
2022/03/30 00:19:44;;;;;;;0.57;0.10;;;;;;;24.26;51.73;100945.53;5052924;28;20063;-65
2022/03/30 00:22:10;;;;;;;0.10;0.03;;;;;;;24.24;50.59;100944.91;5051662;28;20107;-65
2022/03/30 00:24:38;;;;;;;0.00;0.00;;;;;;;24.25;50.88;100943.84;5052819;28;20052;-66
2022/03/30 00:27:05;;;;;;;0.57;0.05;;;;;;;24.25;50.42;100943.84;5052902;28;20032;-65
2022/03/30 00:29:31;;;;;;;0.52;0.10;;;;;;;24.23;51.08;100943.22;5052663;28;20017;-65
2022/03/30 00:31:56;;;;;;;0.08;0.00;;;;;;;24.24;50.70;100942.16;5052799;28;20358;-65
2022/03/30 00:34:21;;;;;;;0.88;0.63;;;;;;;24.22;51.40;100947.03;5052517;28;20094;-65
2022/03/30 00:36:47;;;;;;;0.28;0.10;;;;;;;24.24;50.78;100941.31;5052782;28;20099;-66
2022/03/30 00:39:12;;;;;;;0.28;0.10;;;;;;;24.23;51.08;100945.97;5052535;28;20028;-65
2022/03/30 00:41:38;;;;;;;0.10;0.08;;;;;;;24.21;51.18;100939.84;5052463;28;20490;-65
2022/03/30 00:44:12;;;;;;;0.55;0.55;;;;;;;24.23;51.38;100940.47;5052391;28;20025;-65
2022/03/30 00:46:38;;;;;;;0.30;0.10;;;;;;;24.22;51.19;100938.78;5036573;28;20033;-65
2022/03/30 00:49:04;;;;;;;0.20;0.10;;;;;;;24.21;51.62;100939.84;5032658;28;20026;-66
2022/03/30 00:51:30;;;;;;;1.17;0.40;;;;;;;24.20;52.51;100934.56;5032684;28;20025;-65
2022/03/30 00:53:55;;;;;;;0.60;0.20;;;;;;;24.21;50.49;100937.09;5033101;28;20105;-65
2022/03/30 00:56:21;;;;;;;0.45;0.30;;;;;;;24.19;51.09;100932.88;5032405;28;20419;-66
2022/03/30 00:58:46;;;;;;;0.40;0.17;;;;;;;24.18;50.93;100932.00;5032333;28;20531;-65
2022/03/30 01:01:11;;;;;;;0.68;0.10;;;;;;;24.19;51.23;100938.34;5032301;28;20025;-65
2022/03/30 01:03:37;;;;;;;0.20;0.10;;;;;;;24.18;51.61;100940.22;5032251;28;20524;-65
2022/03/30 01:06:02;;;;;;;0.73;0.20;;;;;;;24.18;50.75;100933.88;5032520;28;20033;-64
2022/03/30 01:08:28;;;;;;;0.70;0.08;;;;;;;24.17;51.43;100924.81;5032213;28;20087;-66
2022/03/30 01:10:53;;;;;;;0.95;0.10;;;;;;;24.14;51.23;100927.97;5032691;28;20132;-65
2022/03/30 01:13:19;;;;;;;0.20;0.10;;;;;;;24.18;50.78;100932.00;5032204;28;20033;-64
2022/03/30 01:15:46;;;;;;;0.60;0.25;;;;;;;24.18;51.78;100925.66;5042519;28;20028;-66
2022/03/30 01:18:12;;;;;;;0.00;0.00;;;;;;;24.18;51.21;100929.25;5052071;28;20021;-64
2022/03/30 01:20:38;;;;;;;1.25;0.20;;;;;;;24.11;50.55;100920.16;5052124;28;20028;-66
2022/03/30 01:23:03;;;;;;;1.05;0.10;;;;;;;24.13;50.18;100919.94;5052242;28;20471;-66
2022/03/30 01:25:29;;;;;;;0.10;0.03;;;;;;;24.18;51.13;100929.25;5051958;28;20104;-65
2022/03/30 01:27:55;;;;;;;0.20;0.10;;;;;;;24.15;51.35;100910.44;5052043;28;20035;-66
2022/03/30 01:33:06;;;;;;;0.98;0.10;;;;;;;24.14;50.74;100902.41;5052174;28;20118;-66
2022/03/30 01:35:33;;;;;;;0.20;0.20;;;;;;;24.14;50.08;100903.25;5050584;28;20057;-64
2022/03/30 01:37:58;;;;;;;0.20;0.03;;;;;;;24.14;50.99;100895.00;5051976;28;20017;-65
2022/03/30 01:40:24;;;;;;;0.40;0.20;;;;;;;24.11;51.00;100903.69;5050106;28;20315;-66
2022/03/30 01:42:49;;;;;;;0.17;0.17;;;;;;;24.15;50.11;100899.44;5052061;28;20031;-65
2022/03/30 01:45:16;;;;;;;0.52;0.13;;;;;;;24.09;50.71;100894.81;5051532;28;20040;-66
2022/03/30 01:47:47;;;;;;;0.20;0.10;;;;;;;;;;5051643;28;20395;-65
2022/03/30 01:50:12;;;;;;;0.17;0.10;;;;;;;24.10;50.75;100893.75;5052190;28;20025;-65
2022/03/30 01:52:37;;;;;;;0.20;0.08;;;;;;;24.08;51.17;100887.63;5051834;28;20029;-67
2022/03/30 01:55:03;;;;;;;0.30;0.20;;;;;;;24.11;50.81;100891.84;5052301;28;20407;-64
2022/03/30 01:57:28;;;;;;;0.00;0.00;;;;;;;24.13;50.76;100889.72;5053405;28;20072;-65
2022/03/30 01:59:54;;;;;;;1.00;0.30;;;;;;;24.09;50.88;100883.81;5055455;28;20391;-65
2022/03/30 02:02:20;;;;;;;0.10;0.10;;;;;;;24.07;51.15;100891.41;5055453;28;20029;-65
2022/03/30 02:04:45;;;;;;;0.17;0.00;;;;;;;24.08;50.97;100882.13;5055596;28;20385;-66
2022/03/30 02:07:10;;;;;;;0.50;0.13;;;;;;;24.10;51.36;100887.41;5055538;28;20025;-65
2022/03/30 02:09:37;;;;;;;0.85;0.30;;;;;;;24.09;51.05;100888.47;5044227;28;20476;-64
2022/03/30 02:12:03;;;;;;;0.45;0.20;;;;;;;24.08;49.83;100886.78;5054143;28;20112;-66
2022/03/30 02:14:28;;;;;;;0.57;0.20;;;;;;;24.07;51.21;100880.44;5055201;28;20036;-64
2022/03/30 02:16:54;;;;;;;0.20;0.10;;;;;;;24.08;50.04;100882.13;5055702;28;20037;-66
2022/03/30 02:19:19;;;;;;;0.50;0.10;;;;;;;24.05;49.80;100877.06;5055040;28;20116;-65
2022/03/30 02:21:45;;;;;;;1.08;0.10;;;;;;;24.06;51.04;100869.66;5055216;28;20548;-65
2022/03/30 02:24:10;;;;;;;0.30;0.13;;;;;;;24.04;51.05;100872.63;5055094;28;20560;-66
2022/03/30 02:26:35;;;;;;;0.38;0.10;;;;;;;24.05;50.25;100866.06;5055068;28;20043;-65
2022/03/30 02:29:01;;;;;;;0.47;0.13;;;;;;;24.02;50.57;100861.00;5055219;28;20465;-66
2022/03/30 02:31:26;;;;;;;1.00;0.45;;;;;;;24.02;50.46;100863.75;5054910;28;20055;-65
2022/03/30 02:33:51;;;;;;;0.38;0.10;;;;;;;24.05;50.36;100866.06;5055558;28;20421;-65
2022/03/30 02:36:17;;;;;;;0.22;0.10;;;;;;;24.04;49.78;100858.03;5054788;28;20388;-66
2022/03/30 02:38:44;;;;;;;0.88;0.30;;;;;;;24.04;50.85;100853.41;5049092;28;20083;-64
2022/03/30 02:41:11;;;;;;;0.10;0.08;;;;;;;24.04;51.26;100842.41;5034934;28;20519;-64
2022/03/30 02:43:37;;;;;;;0.00;0.00;;;;;;;24.04;50.70;100842.41;5034728;28;20096;-65
2022/03/30 02:46:03;;;;;;;1.38;0.20;;;;;;;24.05;50.30;100851.50;5034963;28;20409;-64
2022/03/30 02:48:29;;;;;;;0.30;0.10;;;;;;;24.03;50.76;100846.22;5034691;28;20040;-66
2022/03/30 02:51:00;;;;;;;0.40;0.10;;;;;;;24.01;50.20;100838.16;5034811;28;20412;-64
2022/03/30 02:53:25;;;;;;;0.90;0.13;;;;;;;24.02;49.57;100833.53;5034590;28;20056;-64
2022/03/30 02:55:51;;;;;;;0.68;0.30;;;;;;;24.01;50.57;100834.56;5034622;28;20461;-65
2022/03/30 02:58:17;;;;;;;0.30;0.10;;;;;;;24.03;50.48;100834.38;5034301;28;20083;-65
2022/03/30 03:00:43;;;;;;;0.03;0.03;;;;;;;24.01;50.46;100826.31;5034526;28;20021;-66
2022/03/30 03:03:09;;;;;;;0.00;0.00;;;;;;;24.01;50.64;100813.44;5034557;28;20109;-65
2022/03/30 03:05:35;;;;;;;0.68;0.10;;;;;;;24.04;50.67;100820.44;5034503;28;20040;-64
2022/03/30 03:08:01;;;;;;;0.22;0.17;;;;;;;24.02;50.80;100817.06;5034135;28;20456;-65
2022/03/30 03:10:27;;;;;;;0.85;0.32;;;;;;;24.02;50.56;100822.56;5053748;28;20028;-64
2022/03/30 03:12:53;;;;;;;0.75;0.10;;;;;;;23.98;50.97;100813.03;5054365;28;20388;-66
2022/03/30 03:15:19;;;;;;;0.68;0.10;;;;;;;24.00;49.83;100810.91;5054029;28;20365;-64
2022/03/30 03:17:44;;;;;;;0.22;0.10;;;;;;;24.01;50.19;100809.84;5054114;28;20066;-65
2022/03/30 03:20:11;;;;;;;0.60;0.10;;;;;;;24.01;50.06;100807.09;5054078;28;20029;-65
2022/03/30 03:22:37;;;;;;;0.15;0.15;;;;;;;23.99;49.39;100815.56;5052723;28;20028;-65
2022/03/30 03:25:02;;;;;;;0.95;0.30;;;;;;;24.01;50.42;100807.09;5054166;28;20377;-66
2022/03/30 03:27:29;;;;;;;0.30;0.10;;;;;;;23.98;49.23;100810.28;5053866;28;20039;-64
2022/03/30 03:29:54;;;;;;;0.20;0.13;;;;;;;23.98;50.31;100807.53;5053952;28;20029;-65
2022/03/30 03:32:19;;;;;;;0.38;0.10;;;;;;;23.97;49.80;100781.13;5052418;28;20070;-65
2022/03/30 03:34:45;;;;;;;0.75;0.10;;;;;;;23.95;49.46;100788.72;5053938;28;20149;-64
2022/03/30 03:37:11;;;;;;;0.32;0.13;;;;;;;23.95;49.50;100789.56;5053792;28;20024;-65
2022/03/30 03:39:36;;;;;;;0.20;0.10;;;;;;;23.92;49.57;100789.16;5040831;28;20060;-65
2022/03/30 03:42:01;;;;;;;0.63;0.00;;;;;;;23.94;49.54;100790.63;5033985;28;20057;-65
2022/03/30 03:44:27;;;;;;;0.50;0.03;;;;;;;23.93;49.25;100790.84;5033594;28;20032;-66
2022/03/30 03:46:54;;;;;;;1.42;0.20;;;;;;;23.96;49.15;100779.44;5032484;28;20377;-65
2022/03/30 03:49:19;;;;;;;0.90;0.20;;;;;;;23.96;49.26;100785.78;5033442;28;20014;-64
2022/03/30 03:51:45;;;;;;;1.55;0.35;;;;;;;23.96;49.72;100776.69;5033618;28;20036;-66
2022/03/30 03:54:10;;;;;;;0.20;0.20;;;;;;;23.95;48.99;100772.25;5033547;28;20036;-65
2022/03/30 03:56:35;;;;;;;1.25;0.38;;;;;;;23.92;49.36;100767.19;5033349;28;20030;-66
2022/03/30 03:59:01;;;;;;;0.73;0.10;;;;;;;23.92;49.12;100772.69;5032234;28;20025;-64
2022/03/30 04:01:27;;;;;;;1.17;0.30;;;;;;;23.92;48.89;100783.66;5033433;28;20476;-64
2022/03/30 04:03:53;;;;;;;0.00;0.00;;;;;;;24.06;50.44;100779.88;5033416;28;20108;-65
2022/03/30 04:06:18;;;;;;;0.10;0.08;;;;;;;24.14;49.78;100776.91;5033162;28;20437;-64
2022/03/30 04:08:43;;;;;;;0.10;0.10;;;;;;;24.19;49.92;100779.88;5040636;28;20032;-66
2022/03/30 04:11:08;;;;;;;0.22;0.00;;;;;;;24.22;49.67;100762.97;5050028;28;20520;-64
2022/03/30 04:13:36;;;;;;;0.43;0.10;;;;;;;24.26;49.64;100764.25;5033013;28;20484;-64
2022/03/30 04:16:01;;;;;;;0.57;0.32;;;;;;;24.29;48.58;100752.84;5033134;28;20029;-65
2022/03/30 04:18:27;;;;;;;0.43;0.10;;;;;;;24.26;48.97;100758.75;5032876;28;20029;-64
2022/03/30 04:20:52;;;;;;;0.57;0.10;;;;;;;24.29;47.83;100758.34;5032386;28;20372;-66
2022/03/30 04:23:17;;;;;;;0.60;0.17;;;;;;;24.33;47.92;100746.94;5032907;28;20036;-64
2022/03/30 04:25:43;;;;;;;0.80;0.25;;;;;;;24.32;47.71;100753.47;5032886;28;20164;-64
2022/03/30 04:28:08;;;;;;;0.30;0.08;;;;;;;24.34;47.24;100759.59;5033000;28;20108;-65
2022/03/30 04:30:33;;;;;;;0.90;0.13;;;;;;;24.34;46.28;100759.59;5032905;28;20025;-65
2022/03/30 04:32:59;;;;;;;0.45;0.10;;;;;;;24.34;46.70;100756.84;5032972;28;20025;-66
2022/03/30 04:35:27;;;;;;;0.00;0.00;;;;;;;24.33;47.04;100752.41;5032692;28;20100;-65
2022/03/30 04:37:54;;;;;;;0.20;0.13;;;;;;;24.38;47.32;100749.91;5033326;28;20029;-65
2022/03/30 04:40:20;;;;;;;0.25;0.10;;;;;;;24.39;46.67;100751.59;5052508;28;20052;-66
2022/03/30 04:42:45;;;;;;;0.10;0.00;;;;;;;24.37;46.06;100743.56;5052719;28;20021;-65
2022/03/30 04:45:11;;;;;;;0.32;0.10;;;;;;;24.42;45.68;100751.16;5052628;28;20112;-66
2022/03/30 04:47:36;;;;;;;0.30;0.10;;;;;;;24.43;47.46;100747.34;5052640;28;20104;-65
2022/03/30 04:50:04;;;;;;;0.15;0.00;;;;;;;24.42;46.01;100740.16;5052617;28;20041;-65
2022/03/30 04:52:31;;;;;;;0.10;0.10;;;;;;;24.38;46.70;100747.16;5052319;28;20028;-66
2022/03/30 04:54:57;;;;;;;0.98;0.55;;;;;;;24.39;46.17;100757.09;5052533;28;20024;-65
2022/03/30 04:57:22;;;;;;;1.05;0.20;;;;;;;24.43;47.20;100752.84;5052104;28;20068;-66
2022/03/30 04:59:47;;;;;;;0.10;0.10;;;;;;;24.39;46.45;100754.34;5052175;28;20075;-65
2022/03/30 05:02:13;;;;;;;0.20;0.10;;;;;;;24.40;45.95;100753.28;5052324;28;20063;-65
2022/03/30 05:04:38;;;;;;;0.60;0.10;;;;;;;24.42;46.11;100746.50;5052328;28;20067;-66
2022/03/30 05:07:03;;;;;;;0.17;0.10;;;;;;;24.43;45.88;100741.84;5052404;28;20428;-65
2022/03/30 05:09:29;;;;;;;0.22;0.10;;;;;;;24.46;45.61;100746.91;5035853;28;20021;-66
2022/03/30 05:11:54;;;;;;;1.15;0.20;;;;;;;24.37;45.56;100743.56;5032339;28;20056;-65
2022/03/30 05:14:19;;;;;;;0.20;0.10;;;;;;;24.44;45.57;100743.53;5032193;28;20037;-65
2022/03/30 05:16:44;;;;;;;0.20;0.17;;;;;;;24.41;45.45;100739.31;5032386;28;20032;-66
2022/03/30 05:19:10;;;;;;;0.17;0.13;;;;;;;24.47;46.29;100743.09;5032174;28;20071;-65
2022/03/30 05:21:35;;;;;;;0.17;0.10;;;;;;;24.50;45.54;100734.44;5032630;28;20028;-64
2022/03/30 05:24:01;;;;;;;0.60;0.10;;;;;;;24.49;45.93;100743.72;5032316;28;20155;-65
2022/03/30 05:26:28;;;;;;;0.10;0.00;;;;;;;24.46;45.33;100749.66;5032329;28;20033;-65
2022/03/30 05:28:53;;;;;;;0.93;0.20;;;;;;;24.50;46.09;100748.16;5032274;28;20128;-66
2022/03/30 05:31:19;;;;;;;0.52;0.10;;;;;;;24.49;45.33;100747.31;5033700;28;20366;-64
2022/03/30 05:33:44;;;;;;;0.93;0.30;;;;;;;24.46;44.96;100746.91;5036109;28;20053;-64
2022/03/30 05:36:09;;;;;;;0.28;0.20;;;;;;;24.49;45.58;100762.97;5034871;28;20034;-65
2022/03/30 05:38:35;;;;;;;0.05;0.00;;;;;;;24.50;45.63;100753.66;5044105;28;20056;-64
2022/03/30 05:41:02;;;;;;;0.13;0.10;;;;;;;24.51;45.80;100747.09;5056208;28;20021;-66
2022/03/30 05:43:27;;;;;;;0.17;0.10;;;;;;;24.51;46.03;100755.34;5055844;28;20024;-64
2022/03/30 05:45:53;;;;;;;0.30;0.00;;;;;;;24.50;46.06;100753.66;5055864;28;20445;-64
2022/03/30 05:48:18;;;;;;;0.10;0.10;;;;;;;24.55;45.18;100751.13;5055671;28;20083;-65
2022/03/30 05:50:45;;;;;;;0.52;0.10;;;;;;;24.50;45.33;100749.00;5055844;28;20107;-65
2022/03/30 05:53:10;;;;;;;1.35;0.20;;;;;;;24.51;46.06;100761.69;5055834;28;20025;-65
2022/03/30 05:55:36;;;;;;;0.60;0.22;;;;;;;24.50;45.67;100753.66;5055535;28;20032;-64
2022/03/30 05:58:03;;;;;;;0.20;0.20;;;;;;;24.52;46.03;100757.03;5055587;28;20049;-64
2022/03/30 06:00:28;;;;;;;0.10;0.00;;;;;;;24.53;45.93;100754.09;5055465;28;20029;-65
2022/03/30 06:02:54;;;;;;;0.32;0.10;;;;;;;24.52;45.41;100751.53;5055721;28;20024;-64
2022/03/30 06:05:19;;;;;;;0.40;0.25;;;;;;;24.52;45.67;100757.03;5055464;28;20033;-66
2022/03/30 06:07:44;;;;;;;0.20;0.03;;;;;;;24.56;45.06;100758.31;5051406;28;20021;-64
2022/03/30 06:10:10;;;;;;;0.90;0.00;;;;;;;24.53;45.09;100754.09;5035571;28;20100;-65
2022/03/30 06:12:35;;;;;;;0.55;0.20;;;;;;;24.55;45.93;100751.13;5035454;28;20021;-65
2022/03/30 06:15:01;;;;;;;0.45;0.10;;;;;;;24.54;45.92;100749.44;5035575;28;20117;-64
2022/03/30 06:17:27;;;;;;;0.22;0.10;;;;;;;24.54;45.84;100749.44;5035147;28;20030;-66
2022/03/30 06:19:53;;;;;;;0.10;0.10;;;;;;;24.54;46.07;100746.69;5035335;28;20100;-64
2022/03/30 06:22:18;;;;;;;0.40;0.10;;;;;;;24.55;45.51;100745.63;5035439;28;20113;-64
2022/03/30 06:24:44;;;;;;;0.35;0.20;;;;;;;24.58;45.68;100745.22;5035475;28;20033;-65
2022/03/30 06:27:11;;;;;;;0.05;0.00;;;;;;;24.57;46.32;100743.53;5035279;28;20088;-65
2022/03/30 06:29:38;;;;;;;0.13;0.00;;;;;;;24.55;46.07;100746.50;5035012;28;20028;-66
2022/03/30 06:32:05;;;;;;;0.00;0.00;;;;;;;24.56;46.24;100733.59;5034008;28;20021;-64
2022/03/30 06:34:31;;;;;;;0.10;0.00;;;;;;;24.56;45.95;100734.44;5035003;28;20100;-65
2022/03/30 06:36:56;;;;;;;0.10;0.00;;;;;;;24.58;45.66;100729.56;5035201;28;20120;-66
2022/03/30 06:39:22;;;;;;;0.50;0.20;;;;;;;24.56;46.54;100730.84;5051355;28;20128;-64
2022/03/30 06:41:48;;;;;;;0.70;0.10;;;;;;;24.56;46.74;100725.34;5053741;28;20447;-64
2022/03/30 06:44:14;;;;;;;0.30;0.10;;;;;;;24.57;46.02;100738.03;5054063;28;20100;-64
2022/03/30 06:46:39;;;;;;;0.70;0.38;;;;;;;24.60;46.11;100732.09;5054776;28;20028;-64
2022/03/30 06:49:07;;;;;;;0.13;0.10;;;;;;;24.59;46.43;100738.66;5055076;28;20025;-65
2022/03/30 06:51:33;;;;;;;0.00;0.00;;;;;;;24.57;46.17;100743.53;5054617;28;20485;-64
2022/03/30 06:53:59;;;;;;;0.30;0.00;;;;;;;24.57;46.53;100743.53;5054781;28;20036;-64
2022/03/30 06:56:25;;;;;;;0.28;0.10;;;;;;;24.57;45.86;100740.78;5054429;28;20028;-65
2022/03/30 06:58:51;;;;;;;0.80;0.20;;;;;;;24.59;45.92;100734.00;5054392;28;20073;-65
2022/03/30 07:01:17;;;;;;;0.43;0.10;;;;;;;24.58;45.69;100736.97;5054374;28;20056;-65
2022/03/30 07:03:42;;;;;;;0.10;0.10;;;;;;;24.56;45.53;100733.59;5054649;28;20025;-64
2022/03/30 07:06:07;;;;;;;0.28;0.08;;;;;;;24.59;45.68;100741.41;5054434;28;20378;-65
2022/03/30 07:11:17;;;;;;;0.45;0.10;;;;;;;24.60;45.77;100734.84;5034341;28;20036;-65
2022/03/30 07:13:43;;;;;;;0.75;0.35;;;;;;;24.60;45.76;100737.59;5034656;28;20033;-64
2022/03/30 07:16:09;;;;;;;0.30;0.10;;;;;;;24.59;46.84;100735.91;5034280;28;20515;-65
2022/03/30 07:18:34;;;;;;;0.30;0.10;;;;;;;24.61;45.98;100750.28;5034446;28;20057;-65
2022/03/30 07:20:59;;;;;;;0.10;0.00;;;;;;;24.55;45.53;100745.63;5034398;28;20062;-66
2022/03/30 07:23:25;;;;;;;0.10;0.03;;;;;;;24.62;45.08;100745.63;5034046;28;20461;-65
2022/03/30 07:25:51;;;;;;;0.60;0.20;;;;;;;24.65;45.04;100751.53;5034151;28;20025;-64
2022/03/30 07:28:17;;;;;;;0.30;0.10;;;;;;;24.60;46.23;100748.56;5034049;28;20109;-65
2022/03/30 07:30:45;;;;;;;0.10;0.10;;;;;;;24.60;45.47;100754.91;5034125;28;20029;-65
2022/03/30 07:33:11;;;;;;;0.15;0.00;;;;;;;24.58;46.09;100751.53;5034023;28;20025;-65
2022/03/30 07:35:37;;;;;;;0.10;0.10;;;;;;;24.60;45.96;100762.31;5034034;28;20480;-64
2022/03/30 07:38:03;;;;;;;0.13;0.13;;;;;;;24.61;46.04;100755.75;5041795;28;20021;-65
2022/03/30 07:40:29;;;;;;;0.85;0.25;;;;;;;24.60;45.86;100754.06;5053651;28;20421;-65
2022/03/30 07:42:56;;;;;;;0.73;0.20;;;;;;;24.63;46.07;100758.28;5053791;28;20033;-65
2022/03/30 07:45:21;;;;;;;0.20;0.20;;;;;;;24.61;46.48;100753.03;5052596;28;20449;-66
2022/03/30 07:47:47;;;;;;;0.10;0.10;;;;;;;24.63;46.27;100753.66;5053578;28;20065;-65
2022/03/30 07:50:13;;;;;;;0.10;0.10;;;;;;;24.64;45.87;100749.84;5052307;28;20017;-65
2022/03/30 07:52:40;;;;;;;0.10;0.10;;;;;;;24.63;46.37;100753.66;5053476;28;20404;-66
2022/03/30 07:55:07;;;;;;;0.00;0.00;;;;;;;24.65;45.43;100753.44;5053601;28;20033;-64
2022/03/30 07:57:33;;;;;;;0.00;0.00;;;;;;;24.61;46.20;100747.53;5053157;28;20037;-65
2022/03/30 08:00:00;;;;;;;0.32;0.20;;;;;;;24.63;45.45;100753.66;5051197;28;20036;-65
2022/03/30 08:02:27;;;;;;;0.47;0.10;;;;;;;24.61;46.09;100750.28;5033188;28;20071;-65
2022/03/30 08:04:54;;;;;;;0.40;0.20;;;;;;;24.62;45.55;100751.09;5033509;28;20060;-66
2022/03/30 08:07:20;;;;;;;0.25;0.00;;;;;;;24.61;46.07;100744.78;5033242;28;20071;-64
2022/03/30 08:09:45;;;;;;;0.15;0.03;;;;;;;24.63;45.92;100737.16;5033246;28;20021;-65
2022/03/30 08:12:12;;;;;;;0.77;0.08;;;;;;;24.64;46.63;100747.09;5033278;28;20388;-65
2022/03/30 08:14:38;;;;;;;0.40;0.25;;;;;;;24.62;45.56;100751.94;5033177;28;20022;-66
2022/03/30 08:17:04;;;;;;;0.40;0.17;;;;;;;24.64;46.01;100749.84;5033298;28;20111;-65
2022/03/30 08:19:29;;;;;;;0.65;0.20;;;;;;;24.66;46.00;100752.34;5032922;28;20057;-65
2022/03/30 08:24:46;;;;;;;0.22;0.00;;;;;;;24.64;45.40;100733.34;5032972;28;20037;-65
2022/03/30 08:27:19;;;;;;;1.00;0.10;;;;;;;24.65;45.23;100737.78;5033000;28;20029;-66
2022/03/30 08:29:45;;;;;;;0.00;0.00;;;;;;;24.65;44.93;100736.94;5032835;28;20108;-65
2022/03/30 08:32:12;;;;;;;0.00;0.00;;;;;;;24.64;46.83;100732.50;5052289;28;20067;-65
2022/03/30 08:34:38;;;;;;;0.90;0.10;;;;;;;24.63;45.92;100731.66;5053060;28;20017;-66
2022/03/30 08:37:03;;;;;;;0.80;0.15;;;;;;;24.65;45.34;100740.53;5050849;28;20107;-64
2022/03/30 08:39:29;;;;;;;0.80;0.20;;;;;;;24.63;45.89;100737.16;5032612;28;20155;-66
2022/03/30 08:41:55;;;;;;;0.38;0.20;;;;;;;24.62;45.25;100735.47;5032671;28;20362;-65
2022/03/30 08:44:21;;;;;;;0.45;0.10;;;;;;;24.64;45.14;100733.34;5032518;28;20025;-65
2022/03/30 08:46:48;;;;;;;0.43;0.15;;;;;;;24.64;45.38;100730.59;5033032;28;20036;-66
2022/03/30 08:49:16;;;;;;;0.03;0.03;;;;;;;24.66;45.13;100733.97;5032565;28;20047;-64
2022/03/30 08:51:45;;;;;;;0.35;0.10;;;;;;;24.62;45.25;100729.97;5032496;28;20473;-65
2022/03/30 08:54:12;;;;;;;0.77;0.10;;;;;;;24.65;45.05;100729.53;5032597;28;20064;-66
2022/03/30 08:56:39;;;;;;;0.30;0.10;;;;;;;24.64;44.97;100722.34;5032523;28;20078;-65
2022/03/30 08:59:06;;;;;;;0.25;0.10;;;;;;;24.66;44.73;100720.22;5032291;28;20191;-66
2022/03/30 09:01:33;;;;;;;0.68;0.30;;;;;;;24.66;44.52;100720.22;5046373;28;20415;-65
2022/03/30 09:04:01;;;;;;;0.00;0.00;;;;;;;24.64;44.41;100725.09;5052700;28;20461;-65
2022/03/30 09:06:49;;;;;;;0.35;0.10;;;;;;;24.63;45.07;100726.16;5051692;28;20074;-66
2022/03/30 09:09:25;;;;;;;0.10;0.10;;;;;;;24.62;44.13;100727.22;5052251;28;20503;-65
2022/03/30 09:11:55;;;;;;;0.75;0.20;;;;;;;24.63;44.88;100728.91;5052272;28;20029;-65
2022/03/30 09:14:22;;;;;;;0.65;0.30;;;;;;;24.62;44.09;100718.97;5050872;28;20098;-65
2022/03/30 09:16:50;;;;;;;0.60;0.38;;;;;;;24.62;44.49;100721.72;5052428;28;20043;-65
2022/03/30 09:19:17;;;;;;;0.40;0.20;;;;;;;24.61;44.79;100725.53;5052056;28;20032;-66
2022/03/30 09:21:51;;;;;;;0.35;0.10;;;;;;;24.65;44.77;100729.53;5052435;28;20029;-65
2022/03/30 09:24:18;;;;;;;;;;;;;;;24.64;44.66;100721.50;5052489;28;20092;-66
2022/03/30 09:26:44;;;;;;;0.52;0.10;;;;;;;24.63;44.70;100726.16;5052238;28;19915;-66
2022/03/30 09:29:11;;;;;;;0.70;0.22;;;;;;;24.65;44.21;100723.19;5052162;28;20397;-65
2022/03/30 09:31:38;;;;;;;0.22;0.10;;;;;;;24.65;44.65;100717.69;5040473;28;20060;-66
2022/03/30 09:34:05;;;;;;;0.40;0.25;;;;;;;24.62;44.28;100718.13;5052146;28;20025;-65
2022/03/30 09:36:42;;;;;;;0.55;0.30;;;;;;;24.65;44.47;100715.78;5051955;28;20029;-64
2022/03/30 09:39:25;;;;;;;0.38;0.13;;;;;;;24.63;44.69;100720.66;5051930;28;20029;-66
2022/03/30 09:41:52;;;;;;;0.30;0.10;;;;;;;24.63;44.10;100726.16;5050617;28;20025;-65
2022/03/30 09:44:18;;;;;;;0.50;0.15;;;;;;;24.62;44.38;100705.22;5051835;28;20021;-65
2022/03/30 09:46:52;;;;;;;0.00;0.00;;;;;;;24.63;44.36;100711.56;5051963;28;20020;-65
2022/03/30 09:49:53;;;;;;;0.35;0.10;;;;;;;24.59;43.74;100700.16;5051810;28;20021;-65
2022/03/30 09:52:24;;;;;;;0.20;0.10;;;;;;;24.61;44.53;100711.78;5029249;28;20033;-65
2022/03/30 09:54:54;;;;;;;0.57;0.30;;;;;;;24.60;44.69;100713.69;5029590;28;20045;-66
2022/03/30 09:57:22;;;;;;;0.10;0.10;;;;;;;24.60;44.37;100715.59;5021947;28;20069;-64
2022/03/30 10:00:07;;;;;;;0.43;0.13;;;;;;;24.62;44.88;100718.97;5016990;28;20423;-66
2022/03/30 10:02:47;;;;;;;0.10;0.03;;;;;;;24.62;44.73;100716.22;5022947;28;20112;-65
2022/03/30 10:05:15;;;;;;;0.10;0.05;;;;;;;24.62;44.55;100720.88;5011095;28;20485;-65
2022/03/30 10:07:40;;;;;;;0.50;0.10;;;;;;;24.63;44.68;100722.56;5010570;28;20054;-66
2022/03/30 10:10:09;;;;;;;2.08;0.10;;;;;;;24.62;44.48;100723.63;5018042;28;20056;-65
2022/03/30 10:12:35;;;;;;;0.40;0.10;;;;;;;24.62;44.27;100721.72;5028360;28;20036;-65
2022/03/30 10:15:01;;;;;;;0.10;0.10;;;;;;;24.63;44.51;100717.91;5015613;28;20042;-66
2022/03/30 10:17:29;;;;;;;0.00;0.00;;;;;;;24.65;44.27;100717.69;5016733;28;20034;-65
2022/03/30 10:19:57;;;;;;;0.10;0.10;;;;;;;24.63;44.37;100720.66;5027583;28;20121;-67
2022/03/30 10:22:38;;;;;;;0.45;0.10;;;;;;;24.58;43.81;100717.72;5030871;28;20041;-64
2022/03/30 10:25:17;;;;;;;0.43;0.15;;;;;;;24.63;43.29;100720.66;5045275;28;20177;-65
2022/03/30 10:28:07;;;;;;;0.10;0.10;;;;;;;24.60;43.85;100726.59;5017883;28;20493;-66
2022/03/30 10:30:33;;;;;;;0.10;0.10;;;;;;;24.60;42.44;100705.44;5016301;28;20026;-65
2022/03/30 10:33:01;;;;;;;0.10;0.10;;;;;;;24.63;42.80;100704.16;5015099;28;20076;-65
2022/03/30 10:35:48;;;;;;;0.10;0.00;;;;;;;24.61;43.38;100706.28;5015165;28;20152;-66
2022/03/30 10:38:15;;;;;;;0.57;0.10;;;;;;;24.64;43.16;100716.84;5019252;28;20029;-64
2022/03/30 10:40:42;;;;;;;0.25;0.05;;;;;;;24.62;43.34;100713.47;5021863;28;20022;-65
2022/03/30 10:43:12;;;;;;;0.45;0.05;;;;;;;24.63;42.24;100708.81;5032655;28;20033;-65
2022/03/30 10:45:45;;;;;;;0.70;0.08;;;;;;;24.61;41.84;100706.28;5035158;28;20314;-64
2022/03/30 10:48:29;;;;;;;0.50;0.10;;;;;;;24.57;43.28;100716.03;5034892;28;20029;-65
2022/03/30 10:50:56;;;;;;;0.38;0.00;;;;;;;24.60;42.09;100704.59;5035151;28;20543;-65
2022/03/30 10:53:31;;;;;;;0.10;0.10;;;;;;;24.64;42.33;100714.09;5034404;28;20484;-65
2022/03/30 10:56:14;;;;;;;0.30;0.00;;;;;;;24.62;42.47;100713.47;5034701;28;20449;-66
2022/03/30 10:58:48;;;;;;;0.40;0.10;;;;;;;24.61;43.07;100706.28;5038451;28;20050;-65
2022/03/30 11:01:15;;;;;;;;;;;;;;;24.59;42.74;100708.41;5034914;28;20472;-65
2022/03/30 11:04:04;;;;;;;0.10;0.05;;;;;;;24.58;41.95;100701.22;5034421;28;19991;-66
2022/03/30 11:06:33;;;;;;;0.50;0.10;;;;;;;24.60;43.00;100704.59;5034266;28;20416;-64
2022/03/30 11:09:01;;;;;;;0.43;0.10;;;;;;;24.56;42.92;100701.44;5034615;28;20026;-64
2022/03/30 11:11:55;;;;;;;0.90;0.10;;;;;;;24.63;43.00;100697.81;5034269;28;20112;-65
2022/03/30 11:14:35;;;;;;;0.05;0.05;;;;;;;24.60;43.06;100693.59;5034247;28;20030;-64
2022/03/30 11:17:06;;;;;;;0.25;0.03;;;;;;;24.59;42.04;100708.41;5034465;28;20361;-64
2022/03/30 11:19:47;;;;;;;0.30;0.10;;;;;;;24.60;42.71;100704.59;5034089;28;20028;-65
2022/03/30 11:22:21;;;;;;;0.17;0.10;;;;;;;24.60;41.87;100699.09;5034266;28;20029;-64
2022/03/30 11:25:22;;;;;;;0.52;0.15;;;;;;;24.59;42.27;100702.91;5034249;28;20479;-65
2022/03/30 11:27:57;;;;;;;1.23;0.28;;;;;;;24.57;42.67;100699.53;5038547;28;20035;-66
2022/03/30 11:30:23;;;;;;;0.20;0.15;;;;;;;24.60;42.25;100693.59;5053485;28;20017;-65
2022/03/30 11:32:51;;;;;;;0.45;0.10;;;;;;;24.59;42.87;100694.69;5054118;28;20364;-64
2022/03/30 11:35:20;;;;;;;0.10;0.10;;;;;;;24.57;42.38;100689.41;5053848;28;20361;-65